YM Enlightenment — D5HJ2 — position and weather

sailwx.info

Track history (hours):
 
Tides and Currents Weather Stations Pressure Air Temp Water Temp Dewpoint Dewpoint Depression Visibility Wind Speed Wind Dir Waves Ship Positions

YM Enlightenment

Last reported at 2018-Jun-19 21:30 UTC. Time now 2018-Jun-19 21:40 UTC.
Position N 36°55' W 076°20'.

Length 259 m; draft 11.3 m.

Type: Ship (hazmat cat A). MMSI: 636016703.

Date/timePositionNaut miles runAvg speedWind from/ knotsBaromVisibWave heightAir tempDewpointWater temp
2018-Jun-19 21:30N 36°55' W 076°20'0 0.0
2018-Jun-19 20:57N 36°55' W 076°20'0 0.0
2018-Jun-19 20:15N 36°55' W 076°20'0 0.0
2018-Jun-19 19:57N 36°55' W 076°20'0 0.0
2018-Jun-19 19:15N 36°55' W 076°20'0 0.0
2018-Jun-19 18:39N 36°55' W 076°20'0 0.0
2018-Jun-19 18:27N 36°55' W 076°20'0 0.0
2018-Jun-19 18:00N 36°55' W 076°20'0 0.0
2018-Jun-19 17:27N 36°55' W 076°20'0 0.0
2018-Jun-19 17:00N 36°55' W 076°20'0 0.0
2018-Jun-19 16:30N 36°55' W 076°20'0 0.0
2018-Jun-19 16:00N 36°55' W 076°20'0 0.0
2018-Jun-19 15:30N 36°55' W 076°20'0 0.0
2018-Jun-19 15:00N 36°55' W 076°20'0 0.0
2018-Jun-19 14:18N 36°55' W 076°20'0 0.0
2018-Jun-19 14:00N 36°55' W 076°20'0 0.0
2018-Jun-19 13:24N 36°55' W 076°20'0 0.0
2018-Jun-19 13:00N 36°55' W 076°20'0 0.0
2018-Jun-19 12:18N 36°55' W 076°20'0 0.0
2018-Jun-19 12:00N 36°55' W 076°20'0 0.0
2018-Jun-19 11:30N 36°55' W 076°20'0 0.0
2018-Jun-19 10:57N 36°55' W 076°20'0 0.0
2018-Jun-19 10:30N 36°55' W 076°20'0 0.3
2018-Jun-19 10:00N 36°55' W 076°20'3 5.3
2018-Jun-19 09:30N 36°57' W 076°20'1413.6
2018-Jun-19 08:31N 36°58' W 076°03'025.7
2018-Jun-19 08:30N 36°58' W 076°03'711.4
2018-Jun-19 07:51N 36°55' W 075°55'1 3.5
2018-Jun-19 07:27N 36°54' W 075°53'2813.7
2018-Jun-19 05:23N 36°52' W 075°18'  
2018-Jun-12 05:09N 50°02' W 003°44'319.7
2018-Jun-12 05:00N 50°03' W 003°39'1019.4
2018-Jun-12 04:30N 50°11' W 003°32'1019.9
2018-Jun-12 04:00N 50°21' W 003°28'510.5
2018-Jun-12 03:30N 50°25' W 003°24'612.1
2018-Jun-12 03:01N 50°25' W 003°14'816.0
2018-Jun-12 02:31N 50°26' W 003°02'916.5
2018-Jun-12 01:59N 50°26' W 002°48'817.1
2018-Jun-12 01:30N 50°25' W 002°35'918.2
2018-Jun-12 01:00N 50°26' W 002°21'1019.2
2018-Jun-12 00:30N 50°26' W 002°06'1020.8
2018-Jun-12 00:01N 50°27' W 001°50'1020.6
2018-Jun-11 23:30N 50°28' W 001°33'1020.9
2018-Jun-11 23:01N 50°28' W 001°17'1020.4
2018-Jun-11 22:31N 50°30' W 001°02'1019.9
2018-Jun-11 22:01N 50°30' W 000°46'918.5
2018-Jun-11 21:31N 50°31' W 000°31'917.7
2018-Jun-11 21:01N 50°31' W 000°17'917.1
2018-Jun-11 20:30N 50°31' W 000°04'816.5
2018-Jun-11 20:01N 50°32' E 000°09'816.2
2018-Jun-11 19:31N 50°34' E 000°21'816.1
2018-Jun-11 19:01N 50°37' E 000°33'816.6
2018-Jun-11 18:31N 50°42' E 000°44'917.6
2018-Jun-11 18:00N 50°47' E 000°55'918.7
2018-Jun-11 17:30N 50°52' E 001°07'1019.9
2018-Jun-11 17:00N 50°59' E 001°19'1020.6
2018-Jun-11 16:31N 51°06' E 001°32'1020.7
2018-Jun-11 16:01N 51°12' E 001°44'1019.5
2018-Jun-11 15:31N 51°20' E 001°53'816.1
2018-Jun-11 15:00N 51°24' E 002°04'917.9
2018-Jun-11 14:31N 51°21' E 002°18'917.8
2018-Jun-11 14:00N 51°23' E 002°32'816.6
2018-Jun-11 13:30N 51°24' E 002°45'713.9
2018-Jun-11 13:00N 51°25' E 002°56'917.3
2018-Jun-11 12:30N 51°24' E 003°10'816.9
2018-Jun-11 12:00N 51°25' E 003°23'714.7
2018-Jun-11 11:30N 51°26' E 003°35'3 5.6
2018-Jun-11 11:00N 51°26' E 003°39'510.2
2018-Jun-11 10:30N 51°22' E 003°44'611.3
2018-Jun-11 10:00N 51°21' E 003°53'612.9
2018-Jun-11 09:31N 51°26' E 003°59'510.8
2018-Jun-11 09:01N 51°22' E 004°05'510.2
2018-Jun-11 08:31N 51°22' E 004°13'3 5.3
2018-Jun-11 08:01N 51°21' E 004°16'0 0.1
2018-Jun-11 07:31N 51°21' E 004°16'0 0.0
2018-Jun-11 07:01N 51°21' E 004°16'0 0.0
2018-Jun-11 06:30N 51°21' E 004°16'0 0.0
2018-Jun-11 06:00N 51°21' E 004°16'0 0.0
2018-Jun-11 05:30N 51°21' E 004°16'0 0.0
2018-Jun-11 05:01N 51°21' E 004°16'0 0.0
2018-Jun-11 04:31N 51°21' E 004°16'0 0.0
2018-Jun-11 04:00N 51°21' E 004°16'0 0.0
2018-Jun-11 03:28N 51°21' E 004°16'0 0.0
2018-Jun-11 03:00N 51°21' E 004°16'0 0.0
2018-Jun-11 02:30N 51°21' E 004°16'0 0.0
2018-Jun-11 02:00N 51°21' E 004°16'0 0.0
2018-Jun-11 01:30N 51°21' E 004°16'0 0.0
2018-Jun-11 01:01N 51°21' E 004°16'0 0.0
2018-Jun-11 00:30N 51°21' E 004°16'0 0.0
2018-Jun-11 00:01N 51°21' E 004°16'0 0.0
2018-Jun-10 23:31N 51°21' E 004°16'0 0.0
2018-Jun-10 23:01N 51°21' E 004°16'0 0.0
2018-Jun-10 22:31N 51°21' E 004°16'0 0.0
2018-Jun-10 22:00N 51°21' E 004°16'0 0.0
2018-Jun-10 21:30N 51°21' E 004°16'0 0.0
2018-Jun-10 21:01N 51°21' E 004°16'0 0.0
2018-Jun-10 20:30N 51°21' E 004°16'0 0.0
2018-Jun-10 20:00N 51°21' E 004°16'0 0.0
2018-Jun-10 19:31N 51°21' E 004°16'0 0.0
2018-Jun-10 19:01N 51°21' E 004°16'0 0.0
2018-Jun-10 18:30N 51°21' E 004°16'0 0.0
2018-Jun-10 18:01N 51°21' E 004°16'0 0.0
2018-Jun-10 17:28N 51°21' E 004°16'0 0.0
2018-Jun-10 17:01N 51°21' E 004°16'0 0.0
2018-Jun-10 16:31N 51°21' E 004°16'0 0.0
2018-Jun-10 16:01N 51°21' E 004°16'0 0.0
2018-Jun-10 15:30N 51°21' E 004°16'0 0.0
2018-Jun-10 15:00N 51°21' E 004°16'0 0.0
2018-Jun-10 14:30N 51°21' E 004°16'0 0.0
2018-Jun-10 13:30N 51°21' E 004°16'0 0.0
2018-Jun-10 13:00N 51°21' E 004°16'0 0.0
2018-Jun-10 12:31N 51°21' E 004°16'0 0.0
2018-Jun-10 12:00N 51°21' E 004°16'0 0.0
2018-Jun-10 11:30N 51°21' E 004°16'0 0.0
2018-Jun-10 11:00N 51°21' E 004°16'0 0.0
2018-Jun-10 10:30N 51°21' E 004°16'0 0.0
2018-Jun-10 10:01N 51°21' E 004°16'0 0.0
2018-Jun-10 09:30N 51°21' E 004°16'0 0.0
2018-Jun-10 09:00N 51°21' E 004°16'0 0.0
2018-Jun-10 08:29N 51°21' E 004°16'0 0.0
2018-Jun-10 07:57N 51°21' E 004°16'0 0.0
2018-Jun-10 07:31N 51°21' E 004°16'0 0.0
2018-Jun-10 07:00N 51°21' E 004°16'2 3.7
2018-Jun-10 06:30N 51°21' E 004°14'510.5
2018-Jun-10 06:00N 51°22' E 004°05'611.1
2018-Jun-10 05:30N 51°25' E 003°58'714.0
2018-Jun-10 05:01N 51°21' E 003°49'713.9
2018-Jun-10 04:30N 51°26' E 003°41'611.7
2018-Jun-10 04:00N 51°25' E 003°32'816.7
2018-Jun-10 03:31N 51°24' E 003°19'816.3
2018-Jun-10 03:00N 51°24' E 003°05'917.4
2018-Jun-10 02:30N 51°25' E 002°52'611.4
2018-Jun-10 02:00N 51°23' E 002°43'2 3.5
2018-Jun-10 01:31N 51°22' E 002°41'815.4
2018-Jun-10 01:00N 51°22' E 002°28'510.0
2018-Jun-10 00:30N 51°20' E 002°21'611.9
2018-Jun-10 00:00N 51°18' E 002°12'611.0
2018-Jun-09 23:30N 51°20' E 002°04'611.7
2018-Jun-09 23:00N 51°25' E 001°58'611.3
2018-Jun-09 22:30N 51°29' E 001°53'612.1
2018-Jun-09 22:00N 51°35' E 001°49'612.1
2018-Jun-09 21:30N 51°40' E 001°45'  
Track history (hours):
 
Tides and Currents Weather Stations Pressure Air Temp Water Temp Dewpoint Dewpoint Depression Visibility Wind Speed Wind Dir Waves Ship Positions

YM Enlightenment

Last reported at 2018-Jun-19 21:30 UTC. Time now 2018-Jun-19 21:40 UTC.
Position N 36°55' W 076°20'.

Length 259 m; draft 11.3 m.

Type: Ship (hazmat cat A). MMSI: 636016703.

Date/timePositionNaut miles runAvg speedWind from/ knotsBaromVisibWave heightAir tempDewpointWater temp
2018-Jun-19 21:30N 36°55' W 076°20'0 0.0
2018-Jun-19 20:57N 36°55' W 076°20'0 0.0
2018-Jun-19 20:15N 36°55' W 076°20'0 0.0
2018-Jun-19 19:57N 36°55' W 076°20'0 0.0
2018-Jun-19 19:15N 36°55' W 076°20'0 0.0
2018-Jun-19 18:39N 36°55' W 076°20'0 0.0
2018-Jun-19 18:27N 36°55' W 076°20'0 0.0
2018-Jun-19 18:00N 36°55' W 076°20'0 0.0
2018-Jun-19 17:27N 36°55' W 076°20'0 0.0
2018-Jun-19 17:00N 36°55' W 076°20'0 0.0
2018-Jun-19 16:30N 36°55' W 076°20'0 0.0
2018-Jun-19 16:00N 36°55' W 076°20'0 0.0
2018-Jun-19 15:30N 36°55' W 076°20'0 0.0
2018-Jun-19 15:00N 36°55' W 076°20'0 0.0
2018-Jun-19 14:18N 36°55' W 076°20'0 0.0
2018-Jun-19 14:00N 36°55' W 076°20'0 0.0
2018-Jun-19 13:24N 36°55' W 076°20'0 0.0
2018-Jun-19 13:00N 36°55' W 076°20'0 0.0
2018-Jun-19 12:18N 36°55' W 076°20'0 0.0
2018-Jun-19 12:00N 36°55' W 076°20'0 0.0
2018-Jun-19 11:30N 36°55' W 076°20'0 0.0
2018-Jun-19 10:57N 36°55' W 076°20'0 0.0
2018-Jun-19 10:30N 36°55' W 076°20'0 0.3
2018-Jun-19 10:00N 36°55' W 076°20'3 5.3
2018-Jun-19 09:30N 36°57' W 076°20'1413.6
2018-Jun-19 08:31N 36°58' W 076°03'025.7
2018-Jun-19 08:30N 36°58' W 076°03'711.4
2018-Jun-19 07:51N 36°55' W 075°55'1 3.5
2018-Jun-19 07:27N 36°54' W 075°53'2813.7
2018-Jun-19 05:23N 36°52' W 075°18'  
2018-Jun-12 05:09N 50°02' W 003°44'319.7
2018-Jun-12 05:00N 50°03' W 003°39'1019.4
2018-Jun-12 04:30N 50°11' W 003°32'1019.9
2018-Jun-12 04:00N 50°21' W 003°28'510.5
2018-Jun-12 03:30N 50°25' W 003°24'612.1
2018-Jun-12 03:01N 50°25' W 003°14'816.0
2018-Jun-12 02:31N 50°26' W 003°02'916.5
2018-Jun-12 01:59N 50°26' W 002°48'817.1
2018-Jun-12 01:30N 50°25' W 002°35'918.2
2018-Jun-12 01:00N 50°26' W 002°21'1019.2
2018-Jun-12 00:30N 50°26' W 002°06'1020.8
2018-Jun-12 00:01N 50°27' W 001°50'1020.6
2018-Jun-11 23:30N 50°28' W 001°33'1020.9
2018-Jun-11 23:01N 50°28' W 001°17'1020.4
2018-Jun-11 22:31N 50°30' W 001°02'1019.9
2018-Jun-11 22:01N 50°30' W 000°46'918.5
2018-Jun-11 21:31N 50°31' W 000°31'917.7
2018-Jun-11 21:01N 50°31' W 000°17'917.1
2018-Jun-11 20:30N 50°31' W 000°04'816.5
2018-Jun-11 20:01N 50°32' E 000°09'816.2
2018-Jun-11 19:31N 50°34' E 000°21'816.1
2018-Jun-11 19:01N 50°37' E 000°33'816.6
2018-Jun-11 18:31N 50°42' E 000°44'917.6
2018-Jun-11 18:00N 50°47' E 000°55'918.7
2018-Jun-11 17:30N 50°52' E 001°07'1019.9
2018-Jun-11 17:00N 50°59' E 001°19'1020.6
2018-Jun-11 16:31N 51°06' E 001°32'1020.7
2018-Jun-11 16:01N 51°12' E 001°44'1019.5
2018-Jun-11 15:31N 51°20' E 001°53'816.1
2018-Jun-11 15:00N 51°24' E 002°04'917.9
2018-Jun-11 14:31N 51°21' E 002°18'917.8
2018-Jun-11 14:00N 51°23' E 002°32'816.6
2018-Jun-11 13:30N 51°24' E 002°45'713.9
2018-Jun-11 13:00N 51°25' E 002°56'917.3
2018-Jun-11 12:30N 51°24' E 003°10'816.9
2018-Jun-11 12:00N 51°25' E 003°23'714.7
2018-Jun-11 11:30N 51°26' E 003°35'3 5.6
2018-Jun-11 11:00N 51°26' E 003°39'510.2
2018-Jun-11 10:30N 51°22' E 003°44'611.3
2018-Jun-11 10:00N 51°21' E 003°53'612.9
2018-Jun-11 09:31N 51°26' E 003°59'510.8
2018-Jun-11 09:01N 51°22' E 004°05'510.2
2018-Jun-11 08:31N 51°22' E 004°13'3 5.3
2018-Jun-11 08:01N 51°21' E 004°16'0 0.1
2018-Jun-11 07:31N 51°21' E 004°16'0 0.0
2018-Jun-11 07:01N 51°21' E 004°16'0 0.0
2018-Jun-11 06:30N 51°21' E 004°16'0 0.0
2018-Jun-11 06:00N 51°21' E 004°16'0 0.0
2018-Jun-11 05:30N 51°21' E 004°16'0 0.0
2018-Jun-11 05:01N 51°21' E 004°16'0 0.0
2018-Jun-11 04:31N 51°21' E 004°16'0 0.0
2018-Jun-11 04:00N 51°21' E 004°16'0 0.0
2018-Jun-11 03:28N 51°21' E 004°16'0 0.0
2018-Jun-11 03:00N 51°21' E 004°16'0 0.0
2018-Jun-11 02:30N 51°21' E 004°16'0 0.0
2018-Jun-11 02:00N 51°21' E 004°16'0 0.0
2018-Jun-11 01:30N 51°21' E 004°16'0 0.0
2018-Jun-11 01:01N 51°21' E 004°16'0 0.0
2018-Jun-11 00:30N 51°21' E 004°16'0 0.0
2018-Jun-11 00:01N 51°21' E 004°16'0 0.0
2018-Jun-10 23:31N 51°21' E 004°16'0 0.0
2018-Jun-10 23:01N 51°21' E 004°16'0 0.0
2018-Jun-10 22:31N 51°21' E 004°16'0 0.0
2018-Jun-10 22:00N 51°21' E 004°16'0 0.0
2018-Jun-10 21:30N 51°21' E 004°16'0 0.0
2018-Jun-10 21:01N 51°21' E 004°16'0 0.0
2018-Jun-10 20:30N 51°21' E 004°16'0 0.0
2018-Jun-10 20:00N 51°21' E 004°16'0 0.0
2018-Jun-10 19:31N 51°21' E 004°16'0 0.0
2018-Jun-10 19:01N 51°21' E 004°16'0 0.0
2018-Jun-10 18:30N 51°21' E 004°16'0 0.0
2018-Jun-10 18:01N 51°21' E 004°16'0 0.0
2018-Jun-10 17:28N 51°21' E 004°16'0 0.0
2018-Jun-10 17:01N 51°21' E 004°16'0 0.0
2018-Jun-10 16:31N 51°21' E 004°16'0 0.0
2018-Jun-10 16:01N 51°21' E 004°16'0 0.0
2018-Jun-10 15:30N 51°21' E 004°16'0 0.0
2018-Jun-10 15:00N 51°21' E 004°16'0 0.0
2018-Jun-10 14:30N 51°21' E 004°16'0 0.0
2018-Jun-10 13:30N 51°21' E 004°16'0 0.0
2018-Jun-10 13:00N 51°21' E 004°16'0 0.0
2018-Jun-10 12:31N 51°21' E 004°16'0 0.0
2018-Jun-10 12:00N 51°21' E 004°16'0 0.0
2018-Jun-10 11:30N 51°21' E 004°16'0 0.0
2018-Jun-10 11:00N 51°21' E 004°16'0 0.0
2018-Jun-10 10:30N 51°21' E 004°16'0 0.0
2018-Jun-10 10:01N 51°21' E 004°16'0 0.0
2018-Jun-10 09:30N 51°21' E 004°16'0 0.0
2018-Jun-10 09:00N 51°21' E 004°16'0 0.0
2018-Jun-10 08:29N 51°21' E 004°16'0 0.0
2018-Jun-10 07:57N 51°21' E 004°16'0 0.0
2018-Jun-10 07:31N 51°21' E 004°16'0 0.0
2018-Jun-10 07:00N 51°21' E 004°16'2 3.7
2018-Jun-10 06:30N 51°21' E 004°14'510.5
2018-Jun-10 06:00N 51°22' E 004°05'611.1
2018-Jun-10 05:30N 51°25' E 003°58'714.0
2018-Jun-10 05:01N 51°21' E 003°49'713.9
2018-Jun-10 04:30N 51°26' E 003°41'611.7
2018-Jun-10 04:00N 51°25' E 003°32'816.7
2018-Jun-10 03:31N 51°24' E 003°19'816.3
2018-Jun-10 03:00N 51°24' E 003°05'917.4
2018-Jun-10 02:30N 51°25' E 002°52'611.4
2018-Jun-10 02:00N 51°23' E 002°43'2 3.5
2018-Jun-10 01:31N 51°22' E 002°41'815.4
2018-Jun-10 01:00N 51°22' E 002°28'510.0
2018-Jun-10 00:30N 51°20' E 002°21'611.9
2018-Jun-10 00:00N 51°18' E 002°12'611.0
2018-Jun-09 23:30N 51°20' E 002°04'611.7
2018-Jun-09 23:00N 51°25' E 001°58'611.3
2018-Jun-09 22:30N 51°29' E 001°53'612.1
2018-Jun-09 22:00N 51°35' E 001°49'612.1
2018-Jun-09 21:30N 51°40' E 001°45'  

Dump ship's entire track history